MHW weather

Monteagudo Airport
El BaƱado, Chuquisaca Department, Bolivia

Public forecast

Using degrees Celsius for public forecast. Weather courtesy of forecast.io.

METAR (pilot weather report)

Report is more than 6 hours old.

Retrieved 2019/04/06 12:00 UTC (1 month ago):

SLAG 061200Z 00000KT 9999 BKN015 11/11 Q1025

TAF (pilot weather forecast)

Forecast is more than 12 hours old.

Closest forecast is Juana Azurduy De Padilla Airport, 89.9 nm (166.4 km) WNW. Retrieved 2016/05/13 12:12 UTC (3 years ago):

TAF COR SLSU 131000Z 1312/1412 00000KT 9999 BKN010 TX21/1319Z TN08/1411Z BECMG 1313/1315 SCT013 BECMG 1315/1317 03010KT FEW020 BECMG 1402/1404 00000KT